sensor_id;sensor_type;location;lat;lon;timestamp;P1;durP1;ratioP1;P2;durP2;ratioP2
9970;SDS011;5026;51.494;11.974;2024-02-28T00:01:31;32.60;;;17.03;;
9970;SDS011;5026;51.494;11.974;2024-02-28T00:03:58;39.23;;;16.13;;
9970;SDS011;5026;51.494;11.974;2024-02-28T00:06:24;36.17;;;15.77;;
9970;SDS011;5026;51.494;11.974;2024-02-28T00:08:51;28.40;;;14.33;;
9970;SDS011;5026;51.494;11.974;2024-02-28T00:11:19;34.17;;;15.73;;
9970;SDS011;5026;51.494;11.974;2024-02-28T00:13:46;34.97;;;16.33;;
9970;SDS011;5026;51.494;11.974;2024-02-28T00:16:13;33.00;;;15.87;;
9970;SDS011;5026;51.494;11.974;2024-02-28T00:18:41;35.83;;;16.57;;
9970;SDS011;5026;51.494;11.974;2024-02-28T00:21:08;32.53;;;15.17;;
9970;SDS011;5026;51.494;11.974;2024-02-28T00:23:35;30.53;;;15.60;;
9970;SDS011;5026;51.494;11.974;2024-02-28T00:26:02;34.10;;;15.60;;
9970;SDS011;5026;51.494;11.974;2024-02-28T00:28:29;33.37;;;16.07;;
9970;SDS011;5026;51.494;11.974;2024-02-28T00:30:56;32.40;;;16.93;;
9970;SDS011;5026;51.494;11.974;2024-02-28T00:33:23;37.80;;;15.97;;
9970;SDS011;5026;51.494;11.974;2024-02-28T00:35:51;32.57;;;15.13;;
9970;SDS011;5026;51.494;11.974;2024-02-28T00:38:18;33.20;;;16.07;;
9970;SDS011;5026;51.494;11.974;2024-02-28T00:40:45;29.43;;;14.57;;
9970;SDS011;5026;51.494;11.974;2024-02-28T00:43:12;29.40;;;15.20;;
9970;SDS011;5026;51.494;11.974;2024-02-28T00:45:39;30.07;;;15.00;;
9970;SDS011;5026;51.494;11.974;2024-02-28T00:48:06;28.53;;;15.13;;
9970;SDS011;5026;51.494;11.974;2024-02-28T00:50:33;30.53;;;15.47;;
9970;SDS011;5026;51.494;11.974;2024-02-28T00:53:02;28.83;;;14.27;;
9970;SDS011;5026;51.494;11.974;2024-02-28T00:55:29;32.47;;;15.63;;
9970;SDS011;5026;51.494;11.974;2024-02-28T00:57:55;27.90;;;14.47;;
9970;SDS011;5026;51.494;11.974;2024-02-28T01:00:22;32.77;;;15.57;;
9970;SDS011;5026;51.494;11.974;2024-02-28T01:02:49;32.33;;;14.97;;
9970;SDS011;5026;51.494;11.974;2024-02-28T01:05:16;29.00;;;15.53;;
9970;SDS011;5026;51.494;11.974;2024-02-28T01:07:43;31.67;;;15.13;;
9970;SDS011;5026;51.494;11.974;2024-02-28T01:10:12;32.77;;;15.13;;
9970;SDS011;5026;51.494;11.974;2024-02-28T01:12:38;31.70;;;15.77;;
9970;SDS011;5026;51.494;11.974;2024-02-28T01:15:06;30.27;;;15.37;;
9970;SDS011;5026;51.494;11.974;2024-02-28T01:17:33;28.83;;;16.40;;
9970;SDS011;5026;51.494;11.974;2024-02-28T01:20:00;30.43;;;15.63;;
9970;SDS011;5026;51.494;11.974;2024-02-28T01:22:27;33.07;;;16.90;;
9970;SDS011;5026;51.494;11.974;2024-02-28T01:24:54;29.67;;;16.10;;
9970;SDS011;5026;51.494;11.974;2024-02-28T01:27:22;30.33;;;16.20;;
9970;SDS011;5026;51.494;11.974;2024-02-28T01:29:49;32.37;;;15.97;;
9970;SDS011;5026;51.494;11.974;2024-02-28T01:32:17;27.43;;;15.43;;
9970;SDS011;5026;51.494;11.974;2024-02-28T01:34:44;30.33;;;16.70;;
9970;SDS011;5026;51.494;11.974;2024-02-28T01:37:11;29.37;;;16.23;;
9970;SDS011;5026;51.494;11.974;2024-02-28T01:39:38;32.73;;;17.83;;
9970;SDS011;5026;51.494;11.974;2024-02-28T01:42:05;30.87;;;16.70;;
9970;SDS011;5026;51.494;11.974;2024-02-28T01:44:34;31.27;;;17.33;;
9970;SDS011;5026;51.494;11.974;2024-02-28T01:47:07;30.33;;;17.10;;
9970;SDS011;5026;51.494;11.974;2024-02-28T01:49:34;30.07;;;16.53;;
9970;SDS011;5026;51.494;11.974;2024-02-28T01:52:01;27.27;;;15.73;;
9970;SDS011;5026;51.494;11.974;2024-02-28T01:54:29;29.00;;;15.00;;
9970;SDS011;5026;51.494;11.974;2024-02-28T01:56:56;26.60;;;14.97;;
9970;SDS011;5026;51.494;11.974;2024-02-28T01:59:24;28.73;;;16.60;;
9970;SDS011;5026;51.494;11.974;2024-02-28T02:01:53;30.33;;;16.30;;
9970;SDS011;5026;51.494;11.974;2024-02-28T02:04:20;27.53;;;15.77;;
9970;SDS011;5026;51.494;11.974;2024-02-28T02:06:47;29.30;;;15.73;;
9970;SDS011;5026;51.494;11.974;2024-02-28T02:09:16;31.83;;;15.33;;
9970;SDS011;5026;51.494;11.974;2024-02-28T02:11:43;26.93;;;15.63;;
9970;SDS011;5026;51.494;11.974;2024-02-28T02:14:10;25.73;;;15.27;;
9970;SDS011;5026;51.494;11.974;2024-02-28T02:16:37;29.10;;;15.50;;
9970;SDS011;5026;51.494;11.974;2024-02-28T02:19:05;27.67;;;14.87;;
9970;SDS011;5026;51.494;11.974;2024-02-28T02:21:35;28.90;;;15.90;;
9970;SDS011;5026;51.494;11.974;2024-02-28T02:24:08;26.23;;;14.27;;
9970;SDS011;5026;51.494;11.974;2024-02-28T02:26:35;25.87;;;14.57;;
9970;SDS011;5026;51.494;11.974;2024-02-28T02:29:02;28.53;;;15.67;;
9970;SDS011;5026;51.494;11.974;2024-02-28T02:31:29;24.27;;;14.83;;
9970;SDS011;5026;51.494;11.974;2024-02-28T02:33:56;27.50;;;14.70;;
9970;SDS011;5026;51.494;11.974;2024-02-28T02:36:23;27.23;;;15.03;;
9970;SDS011;5026;51.494;11.974;2024-02-28T02:38:50;25.63;;;14.40;;
9970;SDS011;5026;51.494;11.974;2024-02-28T02:41:19;20.83;;;12.50;;
9970;SDS011;5026;51.494;11.974;2024-02-28T02:43:46;23.73;;;13.10;;
9970;SDS011;5026;51.494;11.974;2024-02-28T02:46:13;23.20;;;12.70;;
9970;SDS011;5026;51.494;11.974;2024-02-28T02:48:40;24.87;;;13.97;;
9970;SDS011;5026;51.494;11.974;2024-02-28T02:51:06;28.60;;;14.67;;
9970;SDS011;5026;51.494;11.974;2024-02-28T02:53:33;25.57;;;14.30;;
9970;SDS011;5026;51.494;11.974;2024-02-28T02:56:03;23.60;;;13.20;;
9970;SDS011;5026;51.494;11.974;2024-02-28T02:58:31;24.27;;;12.93;;
9970;SDS011;5026;51.494;11.974;2024-02-28T03:00:58;23.53;;;13.10;;
9970;SDS011;5026;51.494;11.974;2024-02-28T03:03:25;21.43;;;13.27;;
9970;SDS011;5026;51.494;11.974;2024-02-28T03:05:52;24.40;;;13.00;;
9970;SDS011;5026;51.494;11.974;2024-02-28T03:08:19;23.63;;;13.07;;
9970;SDS011;5026;51.494;11.974;2024-02-28T03:10:46;23.00;;;13.23;;
9970;SDS011;5026;51.494;11.974;2024-02-28T03:13:12;23.10;;;13.70;;
9970;SDS011;5026;51.494;11.974;2024-02-28T03:15:41;27.80;;;14.60;;
9970;SDS011;5026;51.494;11.974;2024-02-28T03:18:08;24.13;;;13.20;;
9970;SDS011;5026;51.494;11.974;2024-02-28T03:20:34;23.60;;;13.20;;
9970;SDS011;5026;51.494;11.974;2024-02-28T03:23:03;24.37;;;12.97;;
9970;SDS011;5026;51.494;11.974;2024-02-28T03:25:30;26.33;;;13.77;;
9970;SDS011;5026;51.494;11.974;2024-02-28T03:27:57;24.90;;;13.87;;
9970;SDS011;5026;51.494;11.974;2024-02-28T03:30:26;27.83;;;14.47;;
9970;SDS011;5026;51.494;11.974;2024-02-28T03:32:54;25.40;;;14.00;;
9970;SDS011;5026;51.494;11.974;2024-02-28T03:35:21;26.77;;;13.70;;
9970;SDS011;5026;51.494;11.974;2024-02-28T03:37:48;25.70;;;13.63;;
9970;SDS011;5026;51.494;11.974;2024-02-28T03:40:15;22.00;;;13.67;;
9970;SDS011;5026;51.494;11.974;2024-02-28T03:42:42;24.53;;;13.23;;
9970;SDS011;5026;51.494;11.974;2024-02-28T03:45:08;26.90;;;13.27;;
9970;SDS011;5026;51.494;11.974;2024-02-28T03:47:35;23.67;;;13.27;;
9970;SDS011;5026;51.494;11.974;2024-02-28T03:50:04;26.80;;;13.53;;
9970;SDS011;5026;51.494;11.974;2024-02-28T03:52:32;25.50;;;13.30;;
9970;SDS011;5026;51.494;11.974;2024-02-28T03:54:58;24.20;;;12.93;;
9970;SDS011;5026;51.494;11.974;2024-02-28T03:57:25;23.77;;;12.60;;
9970;SDS011;5026;51.494;11.974;2024-02-28T03:59:52;27.37;;;13.60;;
9970;SDS011;5026;51.494;11.974;2024-02-28T04:02:19;23.63;;;12.47;;
9970;SDS011;5026;51.494;11.974;2024-02-28T04:04:46;26.77;;;13.73;;
9970;SDS011;5026;51.494;11.974;2024-02-28T04:07:14;24.57;;;13.07;;
9970;SDS011;5026;51.494;11.974;2024-02-28T04:09:41;22.17;;;13.23;;
9970;SDS011;5026;51.494;11.974;2024-02-28T04:12:07;22.10;;;13.13;;
9970;SDS011;5026;51.494;11.974;2024-02-28T04:14:37;22.43;;;11.67;;
9970;SDS011;5026;51.494;11.974;2024-02-28T04:17:03;25.97;;;13.13;;
9970;SDS011;5026;51.494;11.974;2024-02-28T04:19:32;22.67;;;12.70;;
9970;SDS011;5026;51.494;11.974;2024-02-28T04:22:01;24.73;;;11.83;;
9970;SDS011;5026;51.494;11.974;2024-02-28T04:24:29;22.07;;;12.50;;
9970;SDS011;5026;51.494;11.974;2024-02-28T04:26:57;23.73;;;12.63;;
9970;SDS011;5026;51.494;11.974;2024-02-28T04:29:24;22.13;;;12.67;;
9970;SDS011;5026;51.494;11.974;2024-02-28T04:31:51;22.00;;;13.20;;
9970;SDS011;5026;51.494;11.974;2024-02-28T04:34:18;21.37;;;11.93;;
9970;SDS011;5026;51.494;11.974;2024-02-28T04:36:45;22.93;;;12.13;;
9970;SDS011;5026;51.494;11.974;2024-02-28T04:39:12;16.80;;;10.93;;
9970;SDS011;5026;51.494;11.974;2024-02-28T04:41:40;21.40;;;11.27;;
9970;SDS011;5026;51.494;11.974;2024-02-28T04:44:07;19.03;;;11.03;;
9970;SDS011;5026;51.494;11.974;2024-02-28T04:46:33;18.57;;;11.73;;
9970;SDS011;5026;51.494;11.974;2024-02-28T04:49:00;17.17;;;9.90;;
9970;SDS011;5026;51.494;11.974;2024-02-28T04:51:27;19.20;;;10.90;;
9970;SDS011;5026;51.494;11.974;2024-02-28T04:53:54;19.33;;;9.87;;
9970;SDS011;5026;51.494;11.974;2024-02-28T04:56:21;22.93;;;12.53;;
9970;SDS011;5026;51.494;11.974;2024-02-28T04:58:50;18.90;;;11.47;;
9970;SDS011;5026;51.494;11.974;2024-02-28T05:01:17;20.67;;;11.60;;
9970;SDS011;5026;51.494;11.974;2024-02-28T05:03:44;19.93;;;11.17;;
9970;SDS011;5026;51.494;11.974;2024-02-28T05:06:10;20.30;;;10.93;;
9970;SDS011;5026;51.494;11.974;2024-02-28T05:08:37;18.70;;;10.80;;
9970;SDS011;5026;51.494;11.974;2024-02-28T05:11:05;20.77;;;11.40;;
9970;SDS011;5026;51.494;11.974;2024-02-28T05:13:32;20.77;;;11.40;;
9970;SDS011;5026;51.494;11.974;2024-02-28T05:16:00;19.30;;;11.10;;
9970;SDS011;5026;51.494;11.974;2024-02-28T05:18:27;19.13;;;11.17;;
9970;SDS011;5026;51.494;11.974;2024-02-28T05:20:54;19.90;;;11.40;;
9970;SDS011;5026;51.494;11.974;2024-02-28T05:23:21;21.77;;;11.63;;
9970;SDS011;5026;51.494;11.974;2024-02-28T05:25:48;19.53;;;11.10;;
9970;SDS011;5026;51.494;11.974;2024-02-28T05:28:15;19.43;;;11.57;;
9970;SDS011;5026;51.494;11.974;2024-02-28T05:30:42;20.40;;;11.80;;
9970;SDS011;5026;51.494;11.974;2024-02-28T05:33:10;23.43;;;11.67;;
9970;SDS011;5026;51.494;11.974;2024-02-28T05:35:37;21.50;;;12.67;;
9970;SDS011;5026;51.494;11.974;2024-02-28T05:38:04;20.03;;;11.37;;
9970;SDS011;5026;51.494;11.974;2024-02-28T05:40:31;22.53;;;12.33;;
9970;SDS011;5026;51.494;11.974;2024-02-28T05:42:58;21.33;;;11.73;;
9970;SDS011;5026;51.494;11.974;2024-02-28T05:45:27;22.63;;;12.07;;
9970;SDS011;5026;51.494;11.974;2024-02-28T05:47:54;18.17;;;11.83;;
9970;SDS011;5026;51.494;11.974;2024-02-28T05:50:22;23.93;;;11.77;;
9970;SDS011;5026;51.494;11.974;2024-02-28T05:52:50;21.53;;;12.93;;
9970;SDS011;5026;51.494;11.974;2024-02-28T05:55:17;19.43;;;11.43;;
9970;SDS011;5026;51.494;11.974;2024-02-28T05:57:44;21.07;;;11.67;;
9970;SDS011;5026;51.494;11.974;2024-02-28T06:00:11;19.37;;;11.53;;
9970;SDS011;5026;51.494;11.974;2024-02-28T06:02:39;20.33;;;11.60;;
9970;SDS011;5026;51.494;11.974;2024-02-28T06:05:07;18.97;;;10.90;;
9970;SDS011;5026;51.494;11.974;2024-02-28T06:07:36;22.27;;;11.77;;
9970;SDS011;5026;51.494;11.974;2024-02-28T06:10:03;20.97;;;11.57;;
9970;SDS011;5026;51.494;11.974;2024-02-28T06:12:30;22.10;;;11.00;;
9970;SDS011;5026;51.494;11.974;2024-02-28T06:14:57;19.93;;;11.53;;
9970;SDS011;5026;51.494;11.974;2024-02-28T06:17:24;18.83;;;11.03;;
9970;SDS011;5026;51.494;11.974;2024-02-28T06:19:51;22.53;;;11.67;;
9970;SDS011;5026;51.494;11.974;2024-02-28T06:22:18;21.10;;;12.10;;
9970;SDS011;5026;51.494;11.974;2024-02-28T06:24:46;20.87;;;11.83;;
9970;SDS011;5026;51.494;11.974;2024-02-28T06:27:13;24.00;;;12.93;;
9970;SDS011;5026;51.494;11.974;2024-02-28T06:29:41;21.13;;;11.60;;
9970;SDS011;5026;51.494;11.974;2024-02-28T06:32:08;21.47;;;11.60;;
9970;SDS011;5026;51.494;11.974;2024-02-28T06:34:35;22.87;;;11.90;;
9970;SDS011;5026;51.494;11.974;2024-02-28T06:37:02;18.23;;;10.87;;
9970;SDS011;5026;51.494;11.974;2024-02-28T06:39:29;20.80;;;11.80;;
9970;SDS011;5026;51.494;11.974;2024-02-28T06:41:57;18.77;;;10.87;;
9970;SDS011;5026;51.494;11.974;2024-02-28T06:44:24;19.87;;;10.83;;
9970;SDS011;5026;51.494;11.974;2024-02-28T06:46:51;21.67;;;10.73;;
9970;SDS011;5026;51.494;11.974;2024-02-28T06:49:18;18.23;;;10.17;;
9970;SDS011;5026;51.494;11.974;2024-02-28T06:51:45;20.07;;;10.33;;
9970;SDS011;5026;51.494;11.974;2024-02-28T06:54:12;18.77;;;10.20;;
9970;SDS011;5026;51.494;11.974;2024-02-28T06:56:39;19.70;;;10.60;;
9970;SDS011;5026;51.494;11.974;2024-02-28T06:59:07;21.50;;;9.67;;
9970;SDS011;5026;51.494;11.974;2024-02-28T07:01:34;19.70;;;10.87;;
9970;SDS011;5026;51.494;11.974;2024-02-28T07:04:01;17.20;;;10.57;;
9970;SDS011;5026;51.494;11.974;2024-02-28T07:06:28;19.37;;;11.30;;
9970;SDS011;5026;51.494;11.974;2024-02-28T07:08:54;17.60;;;9.87;;
9970;SDS011;5026;51.494;11.974;2024-02-28T07:11:21;17.13;;;9.53;;
9970;SDS011;5026;51.494;11.974;2024-02-28T07:13:48;17.47;;;10.13;;
9970;SDS011;5026;51.494;11.974;2024-02-28T07:16:17;16.77;;;10.13;;
9970;SDS011;5026;51.494;11.974;2024-02-28T07:18:43;15.47;;;9.30;;
9970;SDS011;5026;51.494;11.974;2024-02-28T07:21:10;19.67;;;10.70;;
9970;SDS011;5026;51.494;11.974;2024-02-28T07:23:38;16.63;;;9.73;;
9970;SDS011;5026;51.494;11.974;2024-02-28T07:26:06;20.07;;;10.47;;
9970;SDS011;5026;51.494;11.974;2024-02-28T07:28:33;20.23;;;11.37;;
9970;SDS011;5026;51.494;11.974;2024-02-28T07:30:59;20.27;;;11.80;;
9970;SDS011;5026;51.494;11.974;2024-02-28T07:33:28;21.73;;;12.70;;
9970;SDS011;5026;51.494;11.974;2024-02-28T07:35:54;22.73;;;12.07;;
9970;SDS011;5026;51.494;11.974;2024-02-28T07:38:25;19.63;;;11.40;;
9970;SDS011;5026;51.494;11.974;2024-02-28T07:40:53;19.67;;;10.97;;
9970;SDS011;5026;51.494;11.974;2024-02-28T07:43:20;25.37;;;11.73;;
9970;SDS011;5026;51.494;11.974;2024-02-28T07:45:48;20.27;;;10.97;;
9970;SDS011;5026;51.494;11.974;2024-02-28T07:48:15;19.73;;;11.73;;
9970;SDS011;5026;51.494;11.974;2024-02-28T07:50:44;20.70;;;11.53;;
9970;SDS011;5026;51.494;11.974;2024-02-28T07:53:11;19.30;;;11.93;;
9970;SDS011;5026;51.494;11.974;2024-02-28T07:55:38;20.67;;;11.53;;
9970;SDS011;5026;51.494;11.974;2024-02-28T07:58:05;21.03;;;12.17;;
9970;SDS011;5026;51.494;11.974;2024-02-28T08:00:32;19.50;;;11.93;;
9970;SDS011;5026;51.494;11.974;2024-02-28T08:02:59;20.63;;;11.20;;
9970;SDS011;5026;51.494;11.974;2024-02-28T08:05:26;19.10;;;11.37;;
9970;SDS011;5026;51.494;11.974;2024-02-28T08:07:54;20.43;;;11.43;;
9970;SDS011;5026;51.494;11.974;2024-02-28T08:10:21;18.30;;;11.47;;
9970;SDS011;5026;51.494;11.974;2024-02-28T08:12:48;17.20;;;11.30;;
9970;SDS011;5026;51.494;11.974;2024-02-28T08:15:15;18.70;;;11.90;;
9970;SDS011;5026;51.494;11.974;2024-02-28T08:17:42;19.80;;;11.03;;
9970;SDS011;5026;51.494;11.974;2024-02-28T08:20:09;21.00;;;10.33;;
9970;SDS011;5026;51.494;11.974;2024-02-28T08:22:37;17.70;;;10.53;;
9970;SDS011;5026;51.494;11.974;2024-02-28T08:25:06;18.77;;;10.70;;
9970;SDS011;5026;51.494;11.974;2024-02-28T08:27:36;17.60;;;9.53;;
9970;SDS011;5026;51.494;11.974;2024-02-28T08:30:04;15.90;;;9.80;;
9970;SDS011;5026;51.494;11.974;2024-02-28T08:32:32;14.73;;;9.20;;
9970;SDS011;5026;51.494;11.974;2024-02-28T08:34:59;15.33;;;9.47;;
9970;SDS011;5026;51.494;11.974;2024-02-28T08:37:26;18.80;;;11.07;;
9970;SDS011;5026;51.494;11.974;2024-02-28T08:39:54;15.93;;;9.43;;
9970;SDS011;5026;51.494;11.974;2024-02-28T08:42:24;16.43;;;10.33;;
9970;SDS011;5026;51.494;11.974;2024-02-28T08:44:51;18.27;;;9.97;;
9970;SDS011;5026;51.494;11.974;2024-02-28T08:47:22;16.13;;;9.53;;
9970;SDS011;5026;51.494;11.974;2024-02-28T08:49:49;15.13;;;9.47;;
9970;SDS011;5026;51.494;11.974;2024-02-28T08:52:16;18.90;;;11.13;;
9970;SDS011;5026;51.494;11.974;2024-02-28T08:54:43;18.43;;;10.07;;
9970;SDS011;5026;51.494;11.974;2024-02-28T08:57:10;15.67;;;9.70;;
9970;SDS011;5026;51.494;11.974;2024-02-28T08:59:38;16.47;;;10.13;;
9970;SDS011;5026;51.494;11.974;2024-02-28T09:02:06;16.20;;;9.73;;
9970;SDS011;5026;51.494;11.974;2024-02-28T09:04:33;17.07;;;9.80;;
9970;SDS011;5026;51.494;11.974;2024-02-28T09:07:00;18.33;;;10.90;;
9970;SDS011;5026;51.494;11.974;2024-02-28T09:09:27;16.80;;;10.13;;
9970;SDS011;5026;51.494;11.974;2024-02-28T09:11:57;18.33;;;10.40;;
9970;SDS011;5026;51.494;11.974;2024-02-28T09:14:24;18.50;;;10.70;;
9970;SDS011;5026;51.494;11.974;2024-02-28T09:16:52;17.93;;;9.80;;
9970;SDS011;5026;51.494;11.974;2024-02-28T09:19:21;18.93;;;10.70;;
9970;SDS011;5026;51.494;11.974;2024-02-28T09:21:48;18.03;;;11.07;;
9970;SDS011;5026;51.494;11.974;2024-02-28T09:24:15;18.03;;;11.70;;
9970;SDS011;5026;51.494;11.974;2024-02-28T09:26:42;19.60;;;11.57;;
9970;SDS011;5026;51.494;11.974;2024-02-28T09:29:09;17.40;;;10.32;;
9970;SDS011;5026;51.494;11.974;2024-02-28T09:31:35;18.58;;;11.13;;
9970;SDS011;5026;51.494;11.974;2024-02-28T09:34:04;17.33;;;11.07;;
9970;SDS011;5026;51.494;11.974;2024-02-28T09:36:39;18.53;;;11.03;;
9970;SDS011;5026;51.494;11.974;2024-02-28T09:39:06;18.08;;;10.82;;
9970;SDS011;5026;51.494;11.974;2024-02-28T09:41:33;15.37;;;10.63;;
9970;SDS011;5026;51.494;11.974;2024-02-28T09:44:00;19.80;;;10.60;;
9970;SDS011;5026;51.494;11.974;2024-02-28T09:46:29;14.80;;;10.23;;
9970;SDS011;5026;51.494;11.974;2024-02-28T09:48:57;16.07;;;10.50;;
9970;SDS011;5026;51.494;11.974;2024-02-28T09:51:28;19.93;;;10.23;;
9970;SDS011;5026;51.494;11.974;2024-02-28T09:53:56;14.77;;;9.93;;
9970;SDS011;5026;51.494;11.974;2024-02-28T09:56:25;14.50;;;10.03;;
9970;SDS011;5026;51.494;11.974;2024-02-28T09:58:53;16.20;;;11.07;;
9970;SDS011;5026;51.494;11.974;2024-02-28T10:01:21;15.70;;;10.07;;
9970;SDS011;5026;51.494;11.974;2024-02-28T10:03:48;16.03;;;10.93;;
9970;SDS011;5026;51.494;11.974;2024-02-28T10:06:17;15.70;;;10.00;;
9970;SDS011;5026;51.494;11.974;2024-02-28T10:08:45;16.10;;;10.43;;
9970;SDS011;5026;51.494;11.974;2024-02-28T10:11:17;16.93;;;10.53;;
9970;SDS011;5026;51.494;11.974;2024-02-28T10:13:45;17.50;;;10.80;;
9970;SDS011;5026;51.494;11.974;2024-02-28T10:16:12;16.83;;;11.07;;
9970;SDS011;5026;51.494;11.974;2024-02-28T10:18:41;17.90;;;11.10;;
9970;SDS011;5026;51.494;11.974;2024-02-28T10:21:08;19.07;;;12.20;;
9970;SDS011;5026;51.494;11.974;2024-02-28T10:23:35;18.77;;;10.90;;
9970;SDS011;5026;51.494;11.974;2024-02-28T10:26:04;20.20;;;11.20;;
9970;SDS011;5026;51.494;11.974;2024-02-28T10:28:31;20.50;;;11.60;;
9970;SDS011;5026;51.494;11.974;2024-02-28T10:30:58;20.60;;;11.80;;
9970;SDS011;5026;51.494;11.974;2024-02-28T10:33:26;20.83;;;12.10;;
9970;SDS011;5026;51.494;11.974;2024-02-28T10:35:54;20.40;;;11.63;;
9970;SDS011;5026;51.494;11.974;2024-02-28T10:38:22;20.20;;;11.50;;
9970;SDS011;5026;51.494;11.974;2024-02-28T10:40:52;20.13;;;11.13;;
9970;SDS011;5026;51.494;11.974;2024-02-28T10:43:21;23.73;;;12.47;;
9970;SDS011;5026;51.494;11.974;2024-02-28T10:45:48;20.87;;;12.20;;
9970;SDS011;5026;51.494;11.974;2024-02-28T10:48:16;22.20;;;11.83;;
9970;SDS011;5026;51.494;11.974;2024-02-28T10:50:46;22.83;;;12.40;;
9970;SDS011;5026;51.494;11.974;2024-02-28T10:53:13;22.63;;;11.90;;
9970;SDS011;5026;51.494;11.974;2024-02-28T10:55:42;22.40;;;12.00;;
9970;SDS011;5026;51.494;11.974;2024-02-28T10:58:10;21.80;;;11.73;;
9970;SDS011;5026;51.494;11.974;2024-02-28T11:00:39;16.87;;;10.90;;
9970;SDS011;5026;51.494;11.974;2024-02-28T11:03:09;20.03;;;11.63;;
9970;SDS011;5026;51.494;11.974;2024-02-28T11:05:38;20.63;;;11.83;;
9970;SDS011;5026;51.494;11.974;2024-02-28T11:08:08;23.57;;;13.00;;
9970;SDS011;5026;51.494;11.974;2024-02-28T11:10:35;19.23;;;11.33;;
9970;SDS011;5026;51.494;11.974;2024-02-28T11:13:06;19.70;;;10.80;;
9970;SDS011;5026;51.494;11.974;2024-02-28T11:15:36;18.57;;;11.00;;
9970;SDS011;5026;51.494;11.974;2024-02-28T11:18:11;21.60;;;11.10;;
9970;SDS011;5026;51.494;11.974;2024-02-28T11:20:38;16.63;;;9.87;;
9970;SDS011;5026;51.494;11.974;2024-02-28T11:23:05;18.27;;;10.23;;
9970;SDS011;5026;51.494;11.974;2024-02-28T11:25:33;16.37;;;10.63;;
9970;SDS011;5026;51.494;11.974;2024-02-28T11:28:00;18.13;;;10.77;;
9970;SDS011;5026;51.494;11.974;2024-02-28T11:30:28;14.50;;;9.07;;
9970;SDS011;5026;51.494;11.974;2024-02-28T11:32:55;17.03;;;10.27;;
9970;SDS011;5026;51.494;11.974;2024-02-28T11:35:25;17.47;;;10.37;;
9970;SDS011;5026;51.494;11.974;2024-02-28T11:37:53;14.27;;;9.20;;
9970;SDS011;5026;51.494;11.974;2024-02-28T11:40:22;16.70;;;10.30;;
9970;SDS011;5026;51.494;11.974;2024-02-28T11:42:50;17.27;;;9.87;;
9970;SDS011;5026;51.494;11.974;2024-02-28T11:45:17;15.63;;;9.13;;
9970;SDS011;5026;51.494;11.974;2024-02-28T11:47:44;17.80;;;9.27;;
9970;SDS011;5026;51.494;11.974;2024-02-28T11:50:12;16.43;;;9.77;;
9970;SDS011;5026;51.494;11.974;2024-02-28T11:52:44;16.47;;;9.53;;
9970;SDS011;5026;51.494;11.974;2024-02-28T11:55:12;14.57;;;9.53;;
9970;SDS011;5026;51.494;11.974;2024-02-28T11:57:39;18.93;;;9.93;;
9970;SDS011;5026;51.494;11.974;2024-02-28T12:00:07;16.40;;;9.33;;
9970;SDS011;5026;51.494;11.974;2024-02-28T12:02:37;16.40;;;9.23;;
9970;SDS011;5026;51.494;11.974;2024-02-28T12:05:05;15.97;;;9.73;;
9970;SDS011;5026;51.494;11.974;2024-02-28T12:07:32;15.47;;;9.53;;
9970;SDS011;5026;51.494;11.974;2024-02-28T12:10:00;16.37;;;9.63;;
9970;SDS011;5026;51.494;11.974;2024-02-28T12:12:27;15.80;;;9.73;;
9970;SDS011;5026;51.494;11.974;2024-02-28T12:14:57;19.23;;;10.47;;
9970;SDS011;5026;51.494;11.974;2024-02-28T12:17:25;16.83;;;10.17;;
9970;SDS011;5026;51.494;11.974;2024-02-28T12:19:52;15.10;;;8.47;;
9970;SDS011;5026;51.494;11.974;2024-02-28T12:22:19;14.27;;;8.73;;
9970;SDS011;5026;51.494;11.974;2024-02-28T12:24:47;14.90;;;8.93;;
9970;SDS011;5026;51.494;11.974;2024-02-28T12:27:15;14.57;;;8.83;;
9970;SDS011;5026;51.494;11.974;2024-02-28T12:29:42;17.40;;;9.10;;
9970;SDS011;5026;51.494;11.974;2024-02-28T12:32:09;17.17;;;9.47;;
9970;SDS011;5026;51.494;11.974;2024-02-28T12:34:37;15.53;;;8.90;;
9970;SDS011;5026;51.494;11.974;2024-02-28T12:37:04;17.73;;;9.40;;
9970;SDS011;5026;51.494;11.974;2024-02-28T12:39:31;16.67;;;8.97;;
9970;SDS011;5026;51.494;11.974;2024-02-28T12:41:59;15.27;;;9.50;;
9970;SDS011;5026;51.494;11.974;2024-02-28T12:44:26;15.07;;;9.60;;
9970;SDS011;5026;51.494;11.974;2024-02-28T12:46:53;13.50;;;8.50;;
9970;SDS011;5026;51.494;11.974;2024-02-28T12:49:20;13.23;;;8.20;;
9970;SDS011;5026;51.494;11.974;2024-02-28T12:51:47;13.60;;;8.60;;
9970;SDS011;5026;51.494;11.974;2024-02-28T12:54:14;13.13;;;7.90;;
9970;SDS011;5026;51.494;11.974;2024-02-28T12:56:41;14.50;;;8.60;;
9970;SDS011;5026;51.494;11.974;2024-02-28T12:59:09;12.63;;;7.90;;
9970;SDS011;5026;51.494;11.974;2024-02-28T13:01:37;13.63;;;8.10;;
9970;SDS011;5026;51.494;11.974;2024-02-28T13:04:05;12.13;;;7.37;;
9970;SDS011;5026;51.494;11.974;2024-02-28T13:06:32;13.00;;;7.97;;
9970;SDS011;5026;51.494;11.974;2024-02-28T13:08:58;12.97;;;8.13;;
9970;SDS011;5026;51.494;11.974;2024-02-28T13:11:25;12.63;;;8.10;;
9970;SDS011;5026;51.494;11.974;2024-02-28T13:13:52;12.27;;;7.63;;
9970;SDS011;5026;51.494;11.974;2024-02-28T13:16:20;11.13;;;6.90;;
9970;SDS011;5026;51.494;11.974;2024-02-28T13:18:49;10.17;;;6.80;;
9970;SDS011;5026;51.494;11.974;2024-02-28T13:21:16;11.13;;;6.53;;
9970;SDS011;5026;51.494;11.974;2024-02-28T13:23:43;7.57;;;5.07;;
9970;SDS011;5026;51.494;11.974;2024-02-28T13:26:10;11.43;;;6.17;;
9970;SDS011;5026;51.494;11.974;2024-02-28T13:28:42;8.30;;;5.50;;
9970;SDS011;5026;51.494;11.974;2024-02-28T13:31:09;8.50;;;5.60;;
9970;SDS011;5026;51.494;11.974;2024-02-28T13:33:36;10.27;;;6.40;;
9970;SDS011;5026;51.494;11.974;2024-02-28T13:36:05;10.13;;;6.40;;
9970;SDS011;5026;51.494;11.974;2024-02-28T13:38:33;9.00;;;6.53;;
9970;SDS011;5026;51.494;11.974;2024-02-28T13:41:00;11.93;;;7.23;;
9970;SDS011;5026;51.494;11.974;2024-02-28T13:43:27;9.97;;;6.30;;
9970;SDS011;5026;51.494;11.974;2024-02-28T13:45:54;11.50;;;6.87;;
9970;SDS011;5026;51.494;11.974;2024-02-28T13:48:25;10.10;;;6.60;;
9970;SDS011;5026;51.494;11.974;2024-02-28T13:50:53;11.97;;;7.00;;
9970;SDS011;5026;51.494;11.974;2024-02-28T13:53:22;10.60;;;6.93;;
9970;SDS011;5026;51.494;11.974;2024-02-28T13:55:50;11.03;;;7.07;;
9970;SDS011;5026;51.494;11.974;2024-02-28T13:58:17;11.27;;;7.10;;
9970;SDS011;5026;51.494;11.974;2024-02-28T14:00:44;11.67;;;7.33;;
9970;SDS011;5026;51.494;11.974;2024-02-28T14:03:12;12.73;;;7.80;;
9970;SDS011;5026;51.494;11.974;2024-02-28T14:05:39;9.90;;;7.03;;
9970;SDS011;5026;51.494;11.974;2024-02-28T14:08:06;10.53;;;7.10;;
9970;SDS011;5026;51.494;11.974;2024-02-28T14:10:35;12.47;;;7.43;;
9970;SDS011;5026;51.494;11.974;2024-02-28T14:13:02;12.23;;;7.27;;
9970;SDS011;5026;51.494;11.974;2024-02-28T14:15:29;11.17;;;7.43;;
9970;SDS011;5026;51.494;11.974;2024-02-28T14:17:56;12.80;;;7.23;;
9970;SDS011;5026;51.494;11.974;2024-02-28T14:20:23;12.73;;;8.23;;
9970;SDS011;5026;51.494;11.974;2024-02-28T14:22:51;11.33;;;6.70;;
9970;SDS011;5026;51.494;11.974;2024-02-28T14:25:18;10.00;;;7.07;;
9970;SDS011;5026;51.494;11.974;2024-02-28T14:27:47;13.30;;;8.67;;
9970;SDS011;5026;51.494;11.974;2024-02-28T14:30:14;13.77;;;7.83;;
9970;SDS011;5026;51.494;11.974;2024-02-28T14:32:42;15.30;;;8.13;;
9970;SDS011;5026;51.494;11.974;2024-02-28T14:35:10;14.47;;;7.97;;
9970;SDS011;5026;51.494;11.974;2024-02-28T14:37:37;14.83;;;7.83;;
9970;SDS011;5026;51.494;11.974;2024-02-28T14:40:05;12.67;;;7.73;;